sensor_id;sensor_type;location;lat;lon;timestamp;P1;durP1;ratioP1;P2;durP2;ratioP2
8317;SDS011;4196;48.926;8.964;2022-12-20T00:01:11;24.27;;;11.20;;
8317;SDS011;4196;48.926;8.964;2022-12-20T00:04:00;20.80;;;10.40;;
8317;SDS011;4196;48.926;8.964;2022-12-20T00:06:48;20.97;;;12.17;;
8317;SDS011;4196;48.926;8.964;2022-12-20T00:09:35;18.67;;;10.40;;
8317;SDS011;4196;48.926;8.964;2022-12-20T00:12:21;22.33;;;10.53;;
8317;SDS011;4196;48.926;8.964;2022-12-20T00:15:07;21.40;;;12.10;;
8317;SDS011;4196;48.926;8.964;2022-12-20T00:17:54;23.13;;;12.03;;
8317;SDS011;4196;48.926;8.964;2022-12-20T00:20:41;22.97;;;10.53;;
8317;SDS011;4196;48.926;8.964;2022-12-20T00:23:27;17.17;;;10.53;;
8317;SDS011;4196;48.926;8.964;2022-12-20T00:26:18;20.87;;;11.60;;
8317;SDS011;4196;48.926;8.964;2022-12-20T00:29:06;21.27;;;11.03;;
8317;SDS011;4196;48.926;8.964;2022-12-20T00:31:53;19.03;;;10.33;;
8317;SDS011;4196;48.926;8.964;2022-12-20T00:34:39;21.77;;;11.33;;
8317;SDS011;4196;48.926;8.964;2022-12-20T00:37:26;19.80;;;10.90;;
8317;SDS011;4196;48.926;8.964;2022-12-20T00:40:12;15.90;;;10.13;;
8317;SDS011;4196;48.926;8.964;2022-12-20T00:42:58;18.00;;;10.33;;
8317;SDS011;4196;48.926;8.964;2022-12-20T00:45:45;21.40;;;11.20;;
8317;SDS011;4196;48.926;8.964;2022-12-20T00:48:32;21.90;;;12.30;;
8317;SDS011;4196;48.926;8.964;2022-12-20T00:51:20;20.17;;;11.20;;
8317;SDS011;4196;48.926;8.964;2022-12-20T00:54:09;16.20;;;9.40;;
8317;SDS011;4196;48.926;8.964;2022-12-20T00:56:55;17.17;;;10.67;;
8317;SDS011;4196;48.926;8.964;2022-12-20T00:59:41;19.00;;;10.70;;
8317;SDS011;4196;48.926;8.964;2022-12-20T01:02:28;17.60;;;10.10;;
8317;SDS011;4196;48.926;8.964;2022-12-20T01:05:14;15.20;;;9.40;;
8317;SDS011;4196;48.926;8.964;2022-12-20T01:08:02;19.03;;;10.40;;
8317;SDS011;4196;48.926;8.964;2022-12-20T01:13:52;18.07;;;10.10;;
8317;SDS011;4196;48.926;8.964;2022-12-20T01:16:41;16.17;;;9.23;;
8317;SDS011;4196;48.926;8.964;2022-12-20T01:19:32;13.97;;;10.13;;
8317;SDS011;4196;48.926;8.964;2022-12-20T01:22:18;16.23;;;10.23;;
8317;SDS011;4196;48.926;8.964;2022-12-20T01:25:05;14.30;;;9.13;;
8317;SDS011;4196;48.926;8.964;2022-12-20T01:27:52;18.13;;;10.47;;
8317;SDS011;4196;48.926;8.964;2022-12-20T01:30:39;19.80;;;10.23;;
8317;SDS011;4196;48.926;8.964;2022-12-20T01:33:26;16.30;;;9.03;;
8317;SDS011;4196;48.926;8.964;2022-12-20T01:36:13;20.10;;;9.37;;
8317;SDS011;4196;48.926;8.964;2022-12-20T01:39:11;16.57;;;9.40;;
8317;SDS011;4196;48.926;8.964;2022-12-20T01:41:59;18.97;;;9.77;;
8317;SDS011;4196;48.926;8.964;2022-12-20T01:44:56;12.53;;;8.40;;
8317;SDS011;4196;48.926;8.964;2022-12-20T01:47:44;12.80;;;7.80;;
8317;SDS011;4196;48.926;8.964;2022-12-20T01:50:32;19.03;;;10.23;;
8317;SDS011;4196;48.926;8.964;2022-12-20T01:53:19;17.60;;;9.23;;
8317;SDS011;4196;48.926;8.964;2022-12-20T01:56:08;17.13;;;9.77;;
8317;SDS011;4196;48.926;8.964;2022-12-20T01:58:56;18.30;;;10.20;;
8317;SDS011;4196;48.926;8.964;2022-12-20T02:01:43;16.30;;;9.87;;
8317;SDS011;4196;48.926;8.964;2022-12-20T02:04:31;12.77;;;8.90;;
8317;SDS011;4196;48.926;8.964;2022-12-20T02:07:18;18.23;;;10.33;;
8317;SDS011;4196;48.926;8.964;2022-12-20T02:10:09;15.93;;;9.00;;
8317;SDS011;4196;48.926;8.964;2022-12-20T02:12:59;13.70;;;8.10;;
8317;SDS011;4196;48.926;8.964;2022-12-20T02:15:54;17.20;;;8.40;;
8317;SDS011;4196;48.926;8.964;2022-12-20T02:18:49;16.50;;;8.93;;
8317;SDS011;4196;48.926;8.964;2022-12-20T02:21:45;15.43;;;9.27;;
8317;SDS011;4196;48.926;8.964;2022-12-20T02:24:52;14.20;;;9.27;;
8317;SDS011;4196;48.926;8.964;2022-12-20T02:28:17;19.07;;;9.43;;
8317;SDS011;4196;48.926;8.964;2022-12-20T02:31:08;17.07;;;10.23;;
8317;SDS011;4196;48.926;8.964;2022-12-20T02:33:57;17.40;;;10.00;;
8317;SDS011;4196;48.926;8.964;2022-12-20T02:36:45;19.37;;;9.70;;
8317;SDS011;4196;48.926;8.964;2022-12-20T02:39:32;14.33;;;8.77;;
8317;SDS011;4196;48.926;8.964;2022-12-20T02:42:21;15.80;;;8.57;;
8317;SDS011;4196;48.926;8.964;2022-12-20T02:45:10;18.27;;;9.73;;
8317;SDS011;4196;48.926;8.964;2022-12-20T02:48:07;16.17;;;8.73;;
8317;SDS011;4196;48.926;8.964;2022-12-20T02:50:56;16.17;;;9.17;;
8317;SDS011;4196;48.926;8.964;2022-12-20T02:53:45;15.60;;;7.70;;
8317;SDS011;4196;48.926;8.964;2022-12-20T02:56:37;15.43;;;9.13;;
8317;SDS011;4196;48.926;8.964;2022-12-20T02:59:38;14.53;;;8.50;;
8317;SDS011;4196;48.926;8.964;2022-12-20T03:02:30;18.30;;;10.33;;
8317;SDS011;4196;48.926;8.964;2022-12-20T03:05:42;14.17;;;8.67;;
8317;SDS011;4196;48.926;8.964;2022-12-20T03:08:30;16.30;;;9.37;;
8317;SDS011;4196;48.926;8.964;2022-12-20T03:11:18;15.03;;;8.63;;
8317;SDS011;4196;48.926;8.964;2022-12-20T03:14:05;15.07;;;9.00;;
8317;SDS011;4196;48.926;8.964;2022-12-20T03:16:53;16.60;;;8.73;;
8317;SDS011;4196;48.926;8.964;2022-12-20T03:19:39;12.17;;;8.93;;
8317;SDS011;4196;48.926;8.964;2022-12-20T03:22:26;16.40;;;8.77;;
8317;SDS011;4196;48.926;8.964;2022-12-20T03:25:12;14.57;;;9.60;;
8317;SDS011;4196;48.926;8.964;2022-12-20T03:28:00;16.53;;;9.00;;
8317;SDS011;4196;48.926;8.964;2022-12-20T03:30:47;12.97;;;8.83;;
8317;SDS011;4196;48.926;8.964;2022-12-20T03:33:33;16.77;;;9.40;;
8317;SDS011;4196;48.926;8.964;2022-12-20T03:36:24;16.43;;;8.97;;
8317;SDS011;4196;48.926;8.964;2022-12-20T03:39:16;17.70;;;9.07;;
8317;SDS011;4196;48.926;8.964;2022-12-20T03:42:02;14.27;;;8.47;;
8317;SDS011;4196;48.926;8.964;2022-12-20T03:44:49;15.50;;;9.47;;
8317;SDS011;4196;48.926;8.964;2022-12-20T03:47:36;19.07;;;9.37;;
8317;SDS011;4196;48.926;8.964;2022-12-20T03:50:22;13.90;;;9.10;;
8317;SDS011;4196;48.926;8.964;2022-12-20T03:53:09;11.47;;;7.63;;
8317;SDS011;4196;48.926;8.964;2022-12-20T03:55:55;12.30;;;7.80;;
8317;SDS011;4196;48.926;8.964;2022-12-20T03:58:42;15.37;;;8.30;;
8317;SDS011;4196;48.926;8.964;2022-12-20T04:01:30;12.33;;;8.67;;
8317;SDS011;4196;48.926;8.964;2022-12-20T04:04:17;13.90;;;8.27;;
8317;SDS011;4196;48.926;8.964;2022-12-20T04:07:03;13.93;;;7.73;;
8317;SDS011;4196;48.926;8.964;2022-12-20T04:09:50;15.80;;;8.90;;
8317;SDS011;4196;48.926;8.964;2022-12-20T04:12:37;16.37;;;8.03;;
8317;SDS011;4196;48.926;8.964;2022-12-20T04:15:26;16.47;;;9.33;;
8317;SDS011;4196;48.926;8.964;2022-12-20T04:18:12;16.17;;;8.50;;
8317;SDS011;4196;48.926;8.964;2022-12-20T04:20:59;12.17;;;7.20;;
8317;SDS011;4196;48.926;8.964;2022-12-20T04:23:49;12.30;;;7.77;;
8317;SDS011;4196;48.926;8.964;2022-12-20T04:26:37;14.77;;;8.60;;
8317;SDS011;4196;48.926;8.964;2022-12-20T04:29:23;12.80;;;8.17;;
8317;SDS011;4196;48.926;8.964;2022-12-20T04:32:10;17.60;;;9.20;;
8317;SDS011;4196;48.926;8.964;2022-12-20T04:34:56;15.07;;;7.73;;
8317;SDS011;4196;48.926;8.964;2022-12-20T04:37:43;16.03;;;8.37;;
8317;SDS011;4196;48.926;8.964;2022-12-20T04:40:29;12.27;;;7.73;;
8317;SDS011;4196;48.926;8.964;2022-12-20T04:43:18;15.00;;;8.73;;
8317;SDS011;4196;48.926;8.964;2022-12-20T04:46:05;13.17;;;8.10;;
8317;SDS011;4196;48.926;8.964;2022-12-20T04:48:52;14.27;;;7.90;;
8317;SDS011;4196;48.926;8.964;2022-12-20T04:51:44;13.10;;;8.20;;
8317;SDS011;4196;48.926;8.964;2022-12-20T04:54:34;14.87;;;8.40;;
8317;SDS011;4196;48.926;8.964;2022-12-20T04:57:30;18.20;;;8.50;;
8317;SDS011;4196;48.926;8.964;2022-12-20T05:00:18;16.90;;;8.63;;
8317;SDS011;4196;48.926;8.964;2022-12-20T05:03:12;16.03;;;7.93;;
8317;SDS011;4196;48.926;8.964;2022-12-20T05:05:58;11.57;;;7.93;;
8317;SDS011;4196;48.926;8.964;2022-12-20T05:08:45;14.13;;;7.93;;
8317;SDS011;4196;48.926;8.964;2022-12-20T05:11:32;11.57;;;8.27;;
8317;SDS011;4196;48.926;8.964;2022-12-20T05:14:20;13.57;;;7.70;;
8317;SDS011;4196;48.926;8.964;2022-12-20T05:17:07;13.50;;;9.20;;
8317;SDS011;4196;48.926;8.964;2022-12-20T05:19:55;13.80;;;8.80;;
8317;SDS011;4196;48.926;8.964;2022-12-20T05:22:41;16.43;;;8.77;;
8317;SDS011;4196;48.926;8.964;2022-12-20T05:25:47;12.37;;;7.43;;
8317;SDS011;4196;48.926;8.964;2022-12-20T05:28:55;12.90;;;7.80;;
8317;SDS011;4196;48.926;8.964;2022-12-20T05:31:43;13.27;;;7.90;;
8317;SDS011;4196;48.926;8.964;2022-12-20T05:34:30;13.77;;;8.10;;
8317;SDS011;4196;48.926;8.964;2022-12-20T05:37:17;15.07;;;8.27;;
8317;SDS011;4196;48.926;8.964;2022-12-20T05:40:04;18.10;;;10.23;;
8317;SDS011;4196;48.926;8.964;2022-12-20T05:42:52;21.60;;;10.40;;
8317;SDS011;4196;48.926;8.964;2022-12-20T05:45:50;17.93;;;9.67;;
8317;SDS011;4196;48.926;8.964;2022-12-20T05:48:46;17.27;;;8.70;;
8317;SDS011;4196;48.926;8.964;2022-12-20T05:51:33;25.70;;;12.27;;
8317;SDS011;4196;48.926;8.964;2022-12-20T05:54:29;17.90;;;10.20;;
8317;SDS011;4196;48.926;8.964;2022-12-20T05:57:29;16.13;;;9.63;;
8317;SDS011;4196;48.926;8.964;2022-12-20T06:00:16;17.13;;;8.93;;
8317;SDS011;4196;48.926;8.964;2022-12-20T06:03:06;22.13;;;10.67;;
8317;SDS011;4196;48.926;8.964;2022-12-20T06:05:55;13.90;;;8.63;;
8317;SDS011;4196;48.926;8.964;2022-12-20T06:08:49;16.47;;;9.20;;
8317;SDS011;4196;48.926;8.964;2022-12-20T06:11:42;18.97;;;9.00;;
8317;SDS011;4196;48.926;8.964;2022-12-20T06:14:31;17.13;;;8.70;;
8317;SDS011;4196;48.926;8.964;2022-12-20T06:17:19;13.20;;;8.10;;
8317;SDS011;4196;48.926;8.964;2022-12-20T06:20:07;16.43;;;8.03;;
8317;SDS011;4196;48.926;8.964;2022-12-20T06:22:54;17.80;;;9.47;;
8317;SDS011;4196;48.926;8.964;2022-12-20T06:25:41;15.03;;;8.13;;
8317;SDS011;4196;48.926;8.964;2022-12-20T06:28:27;12.93;;;7.03;;
8317;SDS011;4196;48.926;8.964;2022-12-20T06:31:14;12.73;;;6.87;;
8317;SDS011;4196;48.926;8.964;2022-12-20T06:34:05;12.93;;;8.87;;
8317;SDS011;4196;48.926;8.964;2022-12-20T06:36:56;12.97;;;7.13;;
8317;SDS011;4196;48.926;8.964;2022-12-20T06:39:47;16.63;;;8.93;;
8317;SDS011;4196;48.926;8.964;2022-12-20T06:42:33;12.07;;;7.87;;
8317;SDS011;4196;48.926;8.964;2022-12-20T06:45:20;14.47;;;8.47;;
8317;SDS011;4196;48.926;8.964;2022-12-20T06:48:06;15.60;;;8.37;;
8317;SDS011;4196;48.926;8.964;2022-12-20T06:50:53;17.67;;;8.37;;
8317;SDS011;4196;48.926;8.964;2022-12-20T06:53:42;12.13;;;7.40;;
8317;SDS011;4196;48.926;8.964;2022-12-20T06:56:32;12.50;;;8.47;;
8317;SDS011;4196;48.926;8.964;2022-12-20T06:59:28;13.13;;;7.77;;
8317;SDS011;4196;48.926;8.964;2022-12-20T07:02:15;23.73;;;11.60;;
8317;SDS011;4196;48.926;8.964;2022-12-20T07:05:02;14.77;;;8.53;;
8317;SDS011;4196;48.926;8.964;2022-12-20T07:07:48;21.47;;;10.87;;
8317;SDS011;4196;48.926;8.964;2022-12-20T07:10:36;14.40;;;8.83;;
8317;SDS011;4196;48.926;8.964;2022-12-20T07:13:22;17.77;;;10.40;;
8317;SDS011;4196;48.926;8.964;2022-12-20T07:16:11;16.30;;;8.87;;
8317;SDS011;4196;48.926;8.964;2022-12-20T07:18:57;14.40;;;8.60;;
8317;SDS011;4196;48.926;8.964;2022-12-20T07:21:44;14.50;;;8.80;;
8317;SDS011;4196;48.926;8.964;2022-12-20T07:24:32;12.87;;;7.77;;
8317;SDS011;4196;48.926;8.964;2022-12-20T07:27:19;14.87;;;8.43;;
8317;SDS011;4196;48.926;8.964;2022-12-20T07:30:05;14.27;;;9.40;;
8317;SDS011;4196;48.926;8.964;2022-12-20T07:32:53;13.47;;;8.77;;
8317;SDS011;4196;48.926;8.964;2022-12-20T07:35:40;13.67;;;8.33;;
8317;SDS011;4196;48.926;8.964;2022-12-20T07:38:26;15.17;;;9.27;;
8317;SDS011;4196;48.926;8.964;2022-12-20T07:41:13;13.80;;;8.13;;
8317;SDS011;4196;48.926;8.964;2022-12-20T07:44:03;15.80;;;9.30;;
8317;SDS011;4196;48.926;8.964;2022-12-20T07:46:49;18.43;;;11.03;;
8317;SDS011;4196;48.926;8.964;2022-12-20T07:49:36;15.90;;;9.83;;
8317;SDS011;4196;48.926;8.964;2022-12-20T07:52:23;21.00;;;9.53;;
8317;SDS011;4196;48.926;8.964;2022-12-20T07:55:14;18.73;;;10.33;;
8317;SDS011;4196;48.926;8.964;2022-12-20T07:58:01;15.50;;;9.03;;
8317;SDS011;4196;48.926;8.964;2022-12-20T08:00:51;14.53;;;9.67;;
8317;SDS011;4196;48.926;8.964;2022-12-20T08:03:39;14.97;;;9.20;;
8317;SDS011;4196;48.926;8.964;2022-12-20T08:06:32;22.57;;;10.40;;
8317;SDS011;4196;48.926;8.964;2022-12-20T08:09:21;13.33;;;8.80;;
8317;SDS011;4196;48.926;8.964;2022-12-20T08:12:10;20.90;;;10.37;;
8317;SDS011;4196;48.926;8.964;2022-12-20T08:15:01;15.17;;;9.27;;
8317;SDS011;4196;48.926;8.964;2022-12-20T08:17:47;18.40;;;9.50;;
8317;SDS011;4196;48.926;8.964;2022-12-20T08:20:34;15.53;;;9.27;;
8317;SDS011;4196;48.926;8.964;2022-12-20T08:23:21;20.67;;;10.83;;
8317;SDS011;4196;48.926;8.964;2022-12-20T08:26:07;18.23;;;11.20;;
8317;SDS011;4196;48.926;8.964;2022-12-20T08:28:54;15.63;;;9.77;;
8317;SDS011;4196;48.926;8.964;2022-12-20T08:31:41;25.43;;;11.97;;
8317;SDS011;4196;48.926;8.964;2022-12-20T08:34:35;15.93;;;9.87;;
8317;SDS011;4196;48.926;8.964;2022-12-20T08:37:21;18.97;;;10.50;;
8317;SDS011;4196;48.926;8.964;2022-12-20T08:40:08;16.67;;;10.43;;
8317;SDS011;4196;48.926;8.964;2022-12-20T08:42:54;20.67;;;10.93;;
8317;SDS011;4196;48.926;8.964;2022-12-20T08:45:41;17.53;;;11.43;;
8317;SDS011;4196;48.926;8.964;2022-12-20T08:48:27;18.90;;;10.13;;
8317;SDS011;4196;48.926;8.964;2022-12-20T08:51:14;19.27;;;10.57;;
8317;SDS011;4196;48.926;8.964;2022-12-20T08:54:00;18.77;;;10.50;;
8317;SDS011;4196;48.926;8.964;2022-12-20T08:56:47;16.63;;;9.53;;
8317;SDS011;4196;48.926;8.964;2022-12-20T08:59:33;20.70;;;10.70;;
8317;SDS011;4196;48.926;8.964;2022-12-20T09:02:20;17.03;;;9.70;;
8317;SDS011;4196;48.926;8.964;2022-12-20T09:05:06;20.50;;;9.37;;
8317;SDS011;4196;48.926;8.964;2022-12-20T09:07:53;18.73;;;9.70;;
8317;SDS011;4196;48.926;8.964;2022-12-20T09:10:40;21.60;;;11.00;;
8317;SDS011;4196;48.926;8.964;2022-12-20T09:13:26;17.40;;;9.60;;
8317;SDS011;4196;48.926;8.964;2022-12-20T09:16:15;20.20;;;11.27;;
8317;SDS011;4196;48.926;8.964;2022-12-20T09:19:05;15.63;;;9.47;;
8317;SDS011;4196;48.926;8.964;2022-12-20T09:21:52;18.53;;;11.23;;
8317;SDS011;4196;48.926;8.964;2022-12-20T09:24:40;14.53;;;9.23;;
8317;SDS011;4196;48.926;8.964;2022-12-20T09:27:26;14.37;;;9.77;;
8317;SDS011;4196;48.926;8.964;2022-12-20T09:30:13;16.43;;;9.77;;
8317;SDS011;4196;48.926;8.964;2022-12-20T09:32:59;18.90;;;10.13;;
8317;SDS011;4196;48.926;8.964;2022-12-20T09:35:55;15.43;;;9.80;;
8317;SDS011;4196;48.926;8.964;2022-12-20T09:38:43;18.77;;;9.90;;
8317;SDS011;4196;48.926;8.964;2022-12-20T09:41:32;16.87;;;9.97;;
8317;SDS011;4196;48.926;8.964;2022-12-20T09:44:25;15.67;;;9.53;;
8317;SDS011;4196;48.926;8.964;2022-12-20T09:47:17;15.40;;;8.87;;
8317;SDS011;4196;48.926;8.964;2022-12-20T09:50:10;12.87;;;8.50;;
8317;SDS011;4196;48.926;8.964;2022-12-20T09:53:12;13.83;;;8.23;;
8317;SDS011;4196;48.926;8.964;2022-12-20T10:01:48;11.67;;;6.57;;
8317;SDS011;4196;48.926;8.964;2022-12-20T10:04:35;11.47;;;7.67;;
8317;SDS011;4196;48.926;8.964;2022-12-20T10:07:30;14.77;;;9.07;;
8317;SDS011;4196;48.926;8.964;2022-12-20T10:25:34;11.13;;;6.70;;
8317;SDS011;4196;48.926;8.964;2022-12-20T10:28:25;11.67;;;7.10;;
8317;SDS011;4196;48.926;8.964;2022-12-20T10:31:17;15.87;;;7.83;;
8317;SDS011;4196;48.926;8.964;2022-12-20T10:34:03;12.60;;;6.93;;
8317;SDS011;4196;48.926;8.964;2022-12-20T10:37:07;11.13;;;6.17;;
8317;SDS011;4196;48.926;8.964;2022-12-20T10:39:59;9.00;;;6.20;;
8317;SDS011;4196;48.926;8.964;2022-12-20T10:42:52;11.17;;;6.70;;
8317;SDS011;4196;48.926;8.964;2022-12-20T10:45:40;13.03;;;5.63;;
8317;SDS011;4196;48.926;8.964;2022-12-20T10:48:28;10.87;;;6.50;;
8317;SDS011;4196;48.926;8.964;2022-12-20T10:51:20;11.00;;;6.80;;
8317;SDS011;4196;48.926;8.964;2022-12-20T10:54:10;11.53;;;6.03;;
8317;SDS011;4196;48.926;8.964;2022-12-20T10:57:21;9.77;;;6.13;;
8317;SDS011;4196;48.926;8.964;2022-12-20T11:00:10;12.93;;;7.23;;
8317;SDS011;4196;48.926;8.964;2022-12-20T11:03:16;8.77;;;6.20;;
8317;SDS011;4196;48.926;8.964;2022-12-20T11:06:11;14.40;;;6.37;;
8317;SDS011;4196;48.926;8.964;2022-12-20T11:12:37;8.63;;;5.93;;
8317;SDS011;4196;48.926;8.964;2022-12-20T11:15:38;12.90;;;6.80;;
8317;SDS011;4196;48.926;8.964;2022-12-20T11:25:16;11.20;;;6.90;;
8317;SDS011;4196;48.926;8.964;2022-12-20T11:34:54;11.23;;;6.50;;
8317;SDS011;4196;48.926;8.964;2022-12-20T11:38:09;12.50;;;5.97;;
8317;SDS011;4196;48.926;8.964;2022-12-20T11:47:14;10.43;;;6.67;;
8317;SDS011;4196;48.926;8.964;2022-12-20T11:50:33;8.60;;;6.20;;
8317;SDS011;4196;48.926;8.964;2022-12-20T11:56:37;10.17;;;6.67;;
8317;SDS011;4196;48.926;8.964;2022-12-20T12:05:40;11.10;;;7.27;;
8317;SDS011;4196;48.926;8.964;2022-12-20T12:08:46;11.33;;;6.37;;
8317;SDS011;4196;48.926;8.964;2022-12-20T12:11:47;9.70;;;6.50;;
8317;SDS011;4196;48.926;8.964;2022-12-20T12:15:02;13.07;;;7.87;;
8317;SDS011;4196;48.926;8.964;2022-12-20T12:18:14;13.90;;;8.53;;
8317;SDS011;4196;48.926;8.964;2022-12-20T12:27:25;27.43;;;14.87;;
8317;SDS011;4196;48.926;8.964;2022-12-20T12:30:13;24.10;;;14.27;;
8317;SDS011;4196;48.926;8.964;2022-12-20T12:33:02;20.57;;;10.80;;
8317;SDS011;4196;48.926;8.964;2022-12-20T12:42:11;15.43;;;8.97;;
8317;SDS011;4196;48.926;8.964;2022-12-20T12:45:28;11.43;;;7.90;;
8317;SDS011;4196;48.926;8.964;2022-12-20T12:48:22;11.53;;;7.53;;
8317;SDS011;4196;48.926;8.964;2022-12-20T12:51:18;13.77;;;8.93;;
8317;SDS011;4196;48.926;8.964;2022-12-20T12:54:17;19.13;;;10.83;;
8317;SDS011;4196;48.926;8.964;2022-12-20T12:57:10;23.03;;;12.17;;
8317;SDS011;4196;48.926;8.964;2022-12-20T12:59:59;17.23;;;8.57;;
8317;SDS011;4196;48.926;8.964;2022-12-20T13:02:49;15.17;;;9.27;;
8317;SDS011;4196;48.926;8.964;2022-12-20T13:05:37;13.27;;;9.17;;
8317;SDS011;4196;48.926;8.964;2022-12-20T13:08:24;18.33;;;8.47;;
8317;SDS011;4196;48.926;8.964;2022-12-20T13:11:35;16.50;;;9.10;;
8317;SDS011;4196;48.926;8.964;2022-12-20T13:20:24;9.60;;;6.80;;
8317;SDS011;4196;48.926;8.964;2022-12-20T13:23:15;11.37;;;6.40;;
8317;SDS011;4196;48.926;8.964;2022-12-20T13:26:16;10.80;;;6.93;;
8317;SDS011;4196;48.926;8.964;2022-12-20T13:29:41;11.23;;;5.97;;
8317;SDS011;4196;48.926;8.964;2022-12-20T13:35:43;11.43;;;6.77;;
8317;SDS011;4196;48.926;8.964;2022-12-20T13:44:41;12.57;;;7.53;;
8317;SDS011;4196;48.926;8.964;2022-12-20T13:47:31;11.27;;;6.83;;
8317;SDS011;4196;48.926;8.964;2022-12-20T13:50:33;11.53;;;6.87;;
8317;SDS011;4196;48.926;8.964;2022-12-20T13:53:25;13.10;;;9.33;;
8317;SDS011;4196;48.926;8.964;2022-12-20T13:56:46;10.10;;;5.93;;
8317;SDS011;4196;48.926;8.964;2022-12-20T13:59:36;9.87;;;6.20;;
8317;SDS011;4196;48.926;8.964;2022-12-20T14:02:23;9.50;;;5.73;;
8317;SDS011;4196;48.926;8.964;2022-12-20T14:05:16;11.43;;;6.37;;
8317;SDS011;4196;48.926;8.964;2022-12-20T14:08:07;15.73;;;6.70;;
8317;SDS011;4196;48.926;8.964;2022-12-20T14:11:06;9.30;;;5.87;;
8317;SDS011;4196;48.926;8.964;2022-12-20T14:13:58;9.03;;;6.00;;
8317;SDS011;4196;48.926;8.964;2022-12-20T14:16:49;12.83;;;7.60;;
8317;SDS011;4196;48.926;8.964;2022-12-20T14:19:36;12.30;;;6.97;;
8317;SDS011;4196;48.926;8.964;2022-12-20T14:22:22;23.30;;;15.90;;
8317;SDS011;4196;48.926;8.964;2022-12-20T14:25:10;21.93;;;17.60;;
8317;SDS011;4196;48.926;8.964;2022-12-20T14:28:01;14.93;;;10.60;;
8317;SDS011;4196;48.926;8.964;2022-12-20T14:30:49;14.47;;;8.83;;
8317;SDS011;4196;48.926;8.964;2022-12-20T14:33:37;13.77;;;8.03;;
8317;SDS011;4196;48.926;8.964;2022-12-20T14:36:25;13.63;;;7.47;;
8317;SDS011;4196;48.926;8.964;2022-12-20T14:42:18;32.13;;;17.57;;
8317;SDS011;4196;48.926;8.964;2022-12-20T14:47:59;13.30;;;7.73;;
8317;SDS011;4196;48.926;8.964;2022-12-20T14:50:51;17.10;;;9.03;;
8317;SDS011;4196;48.926;8.964;2022-12-20T14:53:38;14.90;;;9.23;;
8317;SDS011;4196;48.926;8.964;2022-12-20T14:56:25;13.37;;;7.10;;
8317;SDS011;4196;48.926;8.964;2022-12-20T14:59:21;12.20;;;7.17;;
8317;SDS011;4196;48.926;8.964;2022-12-20T15:05:41;9.70;;;6.00;;
8317;SDS011;4196;48.926;8.964;2022-12-20T15:08:46;12.13;;;6.17;;
8317;SDS011;4196;48.926;8.964;2022-12-20T15:11:33;9.33;;;5.87;;
8317;SDS011;4196;48.926;8.964;2022-12-20T15:14:34;9.63;;;5.20;;
8317;SDS011;4196;48.926;8.964;2022-12-20T15:17:24;9.37;;;5.37;;
8317;SDS011;4196;48.926;8.964;2022-12-20T15:20:11;10.77;;;5.73;;
8317;SDS011;4196;48.926;8.964;2022-12-20T15:22:58;13.20;;;5.83;;
8317;SDS011;4196;48.926;8.964;2022-12-20T15:25:45;10.17;;;6.17;;
8317;SDS011;4196;48.926;8.964;2022-12-20T15:28:32;11.90;;;5.43;;
8317;SDS011;4196;48.926;8.964;2022-12-20T15:31:19;13.33;;;8.43;;
8317;SDS011;4196;48.926;8.964;2022-12-20T15:34:19;12.77;;;7.77;;
8317;SDS011;4196;48.926;8.964;2022-12-20T15:37:14;15.87;;;7.83;;
8317;SDS011;4196;48.926;8.964;2022-12-20T15:40:04;11.87;;;7.13;;
8317;SDS011;4196;48.926;8.964;2022-12-20T15:42:51;11.90;;;6.20;;
8317;SDS011;4196;48.926;8.964;2022-12-20T15:45:38;12.00;;;6.73;;
8317;SDS011;4196;48.926;8.964;2022-12-20T15:48:25;13.17;;;6.90;;
8317;SDS011;4196;48.926;8.964;2022-12-20T15:51:23;9.60;;;6.67;;
8317;SDS011;4196;48.926;8.964;2022-12-20T15:54:26;14.67;;;7.33;;
8317;SDS011;4196;48.926;8.964;2022-12-20T15:57:15;14.43;;;8.60;;
8317;SDS011;4196;48.926;8.964;2022-12-20T16:00:01;10.50;;;7.17;;
8317;SDS011;4196;48.926;8.964;2022-12-20T16:02:57;13.63;;;7.97;;
8317;SDS011;4196;48.926;8.964;2022-12-20T16:05:47;27.10;;;13.87;;
8317;SDS011;4196;48.926;8.964;2022-12-20T16:08:36;27.20;;;13.20;;
8317;SDS011;4196;48.926;8.964;2022-12-20T16:11:23;46.30;;;25.13;;
8317;SDS011;4196;48.926;8.964;2022-12-20T16:14:15;30.50;;;15.83;;
8317;SDS011;4196;48.926;8.964;2022-12-20T16:17:03;36.23;;;18.97;;
8317;SDS011;4196;48.926;8.964;2022-12-20T16:19:49;45.70;;;23.37;;
8317;SDS011;4196;48.926;8.964;2022-12-20T16:22:35;35.87;;;17.23;;
8317;SDS011;4196;48.926;8.964;2022-12-20T16:25:23;40.23;;;20.17;;
8317;SDS011;4196;48.926;8.964;2022-12-20T16:28:14;28.97;;;12.93;;
8317;SDS011;4196;48.926;8.964;2022-12-20T16:31:08;51.37;;;20.47;;
8317;SDS011;4196;48.926;8.964;2022-12-20T16:33:57;27.67;;;15.27;;
8317;SDS011;4196;48.926;8.964;2022-12-20T16:36:45;31.27;;;15.83;;
8317;SDS011;4196;48.926;8.964;2022-12-20T16:39:32;19.93;;;10.60;;
8317;SDS011;4196;48.926;8.964;2022-12-20T16:42:21;11.93;;;8.37;;
8317;SDS011;4196;48.926;8.964;2022-12-20T16:45:27;13.37;;;7.90;;
8317;SDS011;4196;48.926;8.964;2022-12-20T16:48:15;27.20;;;13.93;;
8317;SDS011;4196;48.926;8.964;2022-12-20T16:51:01;18.67;;;10.90;;
8317;SDS011;4196;48.926;8.964;2022-12-20T16:53:53;23.10;;;11.20;;
8317;SDS011;4196;48.926;8.964;2022-12-20T16:57:07;25.97;;;13.73;;
8317;SDS011;4196;48.926;8.964;2022-12-20T16:59:54;15.57;;;9.27;;
8317;SDS011;4196;48.926;8.964;2022-12-20T17:02:41;15.37;;;9.67;;
8317;SDS011;4196;48.926;8.964;2022-12-20T17:08:19;17.03;;;9.43;;
8317;SDS011;4196;48.926;8.964;2022-12-20T17:11:24;15.47;;;9.80;;
8317;SDS011;4196;48.926;8.964;2022-12-20T17:14:13;12.40;;;8.13;;
8317;SDS011;4196;48.926;8.964;2022-12-20T17:17:00;15.43;;;7.87;;
8317;SDS011;4196;48.926;8.964;2022-12-20T17:19:46;11.80;;;7.50;;
8317;SDS011;4196;48.926;8.964;2022-12-20T17:22:33;11.17;;;6.73;;
8317;SDS011;4196;48.926;8.964;2022-12-20T17:25:36;13.53;;;7.40;;
8317;SDS011;4196;48.926;8.964;2022-12-20T17:28:23;20.27;;;10.00;;
8317;SDS011;4196;48.926;8.964;2022-12-20T17:34:25;17.63;;;10.40;;
8317;SDS011;4196;48.926;8.964;2022-12-20T17:37:13;12.60;;;8.93;;
8317;SDS011;4196;48.926;8.964;2022-12-20T17:40:00;17.30;;;9.97;;
8317;SDS011;4196;48.926;8.964;2022-12-20T17:42:46;21.83;;;9.40;;
8317;SDS011;4196;48.926;8.964;2022-12-20T17:45:34;16.40;;;9.47;;
8317;SDS011;4196;48.926;8.964;2022-12-20T17:48:22;16.43;;;9.70;;
8317;SDS011;4196;48.926;8.964;2022-12-20T17:51:21;29.87;;;14.70;;
8317;SDS011;4196;48.926;8.964;2022-12-20T17:54:15;25.80;;;14.83;;
8317;SDS011;4196;48.926;8.964;2022-12-20T17:57:03;22.67;;;13.27;;
8317;SDS011;4196;48.926;8.964;2022-12-20T17:59:49;22.17;;;13.30;;
8317;SDS011;4196;48.926;8.964;2022-12-20T18:02:36;18.60;;;12.13;;
8317;SDS011;4196;48.926;8.964;2022-12-20T18:05:23;20.37;;;11.43;;
8317;SDS011;4196;48.926;8.964;2022-12-20T18:08:09;25.63;;;13.87;;
8317;SDS011;4196;48.926;8.964;2022-12-20T18:10:56;23.77;;;14.47;;
8317;SDS011;4196;48.926;8.964;2022-12-20T18:13:44;25.67;;;13.73;;
8317;SDS011;4196;48.926;8.964;2022-12-20T18:16:32;24.80;;;13.33;;
8317;SDS011;4196;48.926;8.964;2022-12-20T18:19:23;20.83;;;11.40;;
8317;SDS011;4196;48.926;8.964;2022-12-20T18:22:10;21.77;;;13.17;;
8317;SDS011;4196;48.926;8.964;2022-12-20T18:24:56;26.23;;;14.70;;
8317;SDS011;4196;48.926;8.964;2022-12-20T18:27:43;24.97;;;14.10;;
8317;SDS011;4196;48.926;8.964;2022-12-20T18:30:30;21.37;;;11.90;;
8317;SDS011;4196;48.926;8.964;2022-12-20T18:33:27;21.43;;;11.60;;
8317;SDS011;4196;48.926;8.964;2022-12-20T18:36:14;19.90;;;13.30;;
8317;SDS011;4196;48.926;8.964;2022-12-20T18:39:04;21.33;;;11.60;;
8317;SDS011;4196;48.926;8.964;2022-12-20T18:41:51;24.83;;;13.13;;
8317;SDS011;4196;48.926;8.964;2022-12-20T18:44:38;20.73;;;11.50;;
8317;SDS011;4196;48.926;8.964;2022-12-20T18:47:24;24.37;;;13.33;;
8317;SDS011;4196;48.926;8.964;2022-12-20T18:50:11;22.37;;;11.03;;
8317;SDS011;4196;48.926;8.964;2022-12-20T18:52:58;18.13;;;11.40;;
8317;SDS011;4196;48.926;8.964;2022-12-20T18:55:47;22.73;;;12.23;;
8317;SDS011;4196;48.926;8.964;2022-12-20T18:58:33;20.87;;;12.20;;